Time;durP1;ratioP1;P1;durP2;ratioP2;P2;SDS_P1;SDS_P2;PMS_P1;PMS_P2;Temp;Humidity;BMP_temperature;BMP_pressure;BME280_temperature;BME280_humidity;BME280_pressure;Samples;Min_cycle;Max_cycle;Signal;HPM_P1;HPM_P2
2021/11/05 00:00:50;;;;;;;6.57;0.77;;;10.00;99.90;;;;;;5127925;27;38994;-74
2021/11/05 00:03:16;;;;;;;3.60;0.50;;;10.00;99.90;;;;;;5127452;27;38022;-73
2021/11/05 00:05:42;;;;;;;3.60;0.37;;;10.00;99.90;;;;;;5129613;27;40246;-74
2021/11/05 00:08:08;;;;;;;1.80;0.50;;;10.00;99.90;;;;;;5148549;27;38589;-74
2021/11/05 00:10:40;;;;;;;2.80;0.40;;;9.90;99.90;;;;;;5126793;27;38247;-74
2021/11/05 00:13:08;;;;;;;2.47;0.70;;;9.90;99.90;;;;;;5148762;27;37962;-74
2021/11/05 00:15:36;;;;;;;3.13;0.50;;;9.90;99.90;;;;;;5135534;27;39923;-72
2021/11/05 00:18:02;;;;;;;3.40;0.40;;;9.90;99.90;;;;;;5136516;27;38595;-73
2021/11/05 00:20:28;;;;;;;1.30;0.30;;;9.90;99.90;;;;;;5138554;27;39311;-73
2021/11/05 00:22:55;;;;;;;1.87;0.40;;;9.90;99.90;;;;;;5133448;27;37975;-73
2021/11/05 00:25:21;;;;;;;3.70;0.40;;;9.90;99.90;;;;;;5119151;27;39267;-73
2021/11/05 00:27:47;;;;;;;2.53;0.30;;;9.80;99.90;;;;;;5125012;27;38939;-73
2021/11/05 00:30:14;;;;;;;2.60;0.20;;;9.80;99.90;;;;;;5128980;27;39057;-74
2021/11/05 00:32:44;;;;;;;2.33;0.43;;;9.70;99.90;;;;;;5129836;27;38375;-74
2021/11/05 00:35:11;;;;;;;2.53;0.50;;;9.60;99.90;;;;;;5126559;27;37506;-74
2021/11/05 00:37:38;;;;;;;2.93;0.40;;;9.60;99.90;;;;;;5148941;27;38775;-73
2021/11/05 00:40:09;;;;;;;1.67;0.40;;;9.50;99.90;;;;;;5137656;27;38145;-74
2021/11/05 00:42:36;;;;;;;4.03;0.50;;;9.50;99.90;;;;;;5125846;27;47255;-73
2021/11/05 00:45:02;;;;;;;2.47;0.40;;;9.40;99.90;;;;;;5132050;27;38594;-74
2021/11/05 00:47:29;;;;;;;5.43;0.73;;;9.30;99.90;;;;;;5124601;27;39036;-73
2021/11/05 00:49:55;;;;;;;4.73;0.60;;;9.30;99.90;;;;;;5130139;27;37971;-73
2021/11/05 00:52:21;;;;;;;3.23;0.70;;;9.30;99.90;;;;;;5129812;27;36763;-73
2021/11/05 00:54:47;;;;;;;6.00;1.00;;;9.30;99.90;;;;;;5127242;27;42259;-74
2021/11/05 00:57:13;;;;;;;9.20;1.77;;;9.40;99.90;;;;;;5131394;27;39227;-74
2021/11/05 00:59:40;;;;;;;3.77;1.10;;;9.50;99.90;;;;;;5123216;27;38767;-74
2021/11/05 01:02:07;;;;;;;4.13;1.03;;;9.50;99.90;;;;;;5124958;27;37396;-74
2021/11/05 01:04:33;;;;;;;5.70;1.40;;;9.50;99.90;;;;;;5137039;27;38478;-74
2021/11/05 01:06:59;;;;;;;5.60;1.10;;;9.50;99.90;;;;;;5154201;27;36927;-74
2021/11/05 01:09:25;;;;;;;10.17;1.80;;;9.60;99.90;;;;;;5134820;27;37976;-73
2021/11/05 01:11:52;;;;;;;5.03;1.20;;;9.60;99.90;;;;;;5137944;27;36780;-73
2021/11/05 01:14:18;;;;;;;9.27;0.90;;;9.60;99.90;;;;;;5136372;27;38032;-73
2021/11/05 01:16:44;;;;;;;9.63;1.53;;;9.70;99.90;;;;;;5120882;27;38442;-74
2021/11/05 01:19:10;;;;;;;9.10;1.23;;;9.80;99.90;;;;;;5132374;27;38441;-73
2021/11/05 01:21:36;;;;;;;7.73;1.43;;;10.00;99.90;;;;;;5129356;27;38029;-74
2021/11/05 01:24:03;;;;;;;9.30;2.27;;;10.10;99.90;;;;;;5135190;27;38660;-71
2021/11/05 01:26:29;;;;;;;10.37;1.43;;;10.10;99.90;;;;;;5130591;27;38726;-73
2021/11/05 01:28:55;;;;;;;11.87;1.73;;;10.20;99.90;;;;;;5126064;27;38330;-74
2021/11/05 01:31:22;;;;;;;5.53;1.00;;;10.20;99.90;;;;;;5122028;27;37872;-74
2021/11/05 01:33:48;;;;;;;8.67;1.10;;;10.20;99.90;;;;;;5138325;27;39515;-74
2021/11/05 01:36:14;;;;;;;5.17;1.20;;;10.20;99.90;;;;;;5137927;27;38060;-74
2021/11/05 01:38:41;;;;;;;8.97;1.03;;;10.20;99.90;;;;;;5119587;27;37213;-74
2021/11/05 01:41:07;;;;;;;8.83;1.07;;;10.20;99.90;;;;;;5133950;27;37382;-73
2021/11/05 01:43:34;;;;;;;5.30;1.00;;;10.20;99.90;;;;;;5118048;27;39688;-73
2021/11/05 01:46:00;;;;;;;7.80;1.60;;;10.20;99.90;;;;;;5109950;27;38695;-74
2021/11/05 01:48:26;;;;;;;8.13;1.10;;;10.20;99.90;;;;;;5128075;27;40266;-75
2021/11/05 01:50:54;;;;;;;6.17;0.90;;;10.10;99.90;;;;;;5127032;27;38677;-75
2021/11/05 01:53:21;;;;;;;13.87;1.57;;;10.10;99.90;;;;;;5121210;27;39764;-73
2021/11/05 01:55:47;;;;;;;4.67;1.00;;;10.20;99.90;;;;;;5115854;27;39785;-73
2021/11/05 01:58:13;;;;;;;6.17;1.10;;;10.20;99.90;;;;;;5130920;27;38891;-73
2021/11/05 02:00:40;;;;;;;7.17;0.83;;;10.30;99.90;;;;;;5126187;27;38827;-74
2021/11/05 02:03:06;;;;;;;8.30;0.90;;;10.30;99.90;;;;;;5135220;27;39982;-73
2021/11/05 02:05:33;;;;;;;10.23;1.30;;;10.20;99.90;;;;;;5153981;27;38061;-72
2021/11/05 02:08:01;;;;;;;8.93;1.13;;;10.30;99.90;;;;;;5127778;27;38461;-73
2021/11/05 02:10:28;;;;;;;7.77;1.50;;;10.20;99.90;;;;;;5154266;27;47889;-75
2021/11/05 02:12:55;;;;;;;2.87;0.60;;;10.20;99.90;;;;;;5153678;27;38194;-74
2021/11/05 02:15:22;;;;;;;5.13;0.90;;;10.10;99.90;;;;;;5134293;27;37077;-75
2021/11/05 02:17:49;;;;;;;5.77;1.43;;;10.10;99.90;;;;;;5150619;27;38666;-74
2021/11/05 02:20:25;;;;;;;9.30;1.40;;;9.90;99.90;;;;;;5148810;27;37591;-74
2021/11/05 02:22:55;;;;;;;7.87;1.10;;;9.80;99.90;;;;;;5131290;27;39509;-74
2021/11/05 02:25:24;;;;;;;5.63;1.20;;;9.80;99.90;;;;;;5127280;27;37451;-74
2021/11/05 02:27:51;;;;;;;6.20;0.90;;;9.70;99.90;;;;;;5145925;27;39229;-72
2021/11/05 02:30:18;;;;;;;5.00;1.00;;;9.70;99.90;;;;;;5129199;27;37294;-74
2021/11/05 02:32:44;;;;;;;4.47;0.83;;;9.60;99.90;;;;;;5130982;27;38855;-74
2021/11/05 02:35:13;;;;;;;7.63;1.50;;;9.50;99.90;;;;;;5153430;27;38284;-72
2021/11/05 02:37:40;;;;;;;5.90;1.43;;;9.30;99.90;;;;;;5155280;27;38724;-72
2021/11/05 02:40:07;;;;;;;5.93;1.30;;;9.20;99.90;;;;;;5128592;27;37978;-75
2021/11/05 02:42:34;;;;;;;9.73;1.40;;;9.10;99.90;;;;;;5137122;27;39431;-75
2021/11/05 02:45:01;;;;;;;9.10;1.50;;;9.00;99.90;;;;;;5157008;27;38206;-72
2021/11/05 02:47:28;;;;;;;5.00;1.53;;;8.90;99.90;;;;;;5151177;27;38726;-74
2021/11/05 02:49:58;;;;;;;6.43;0.90;;;8.80;99.90;;;;;;5151879;27;38179;-74
2021/11/05 02:52:24;;;;;;;6.23;1.17;;;8.80;99.90;;;;;;5131246;27;39351;-74
2021/11/05 02:54:51;;;;;;;5.50;1.10;;;8.80;99.90;;;;;;5128430;27;38660;-74
2021/11/05 02:57:17;;;;;;;4.57;1.43;;;8.70;99.90;;;;;;5130911;27;37110;-72
2021/11/05 02:59:43;;;;;;;4.17;0.90;;;8.60;99.90;;;;;;5156912;27;37925;-72
2021/11/05 03:02:09;;;;;;;4.10;1.30;;;8.60;99.90;;;;;;5132109;27;40687;-74
2021/11/05 03:04:37;;;;;;;7.30;1.30;;;8.50;99.90;;;;;;5133862;27;39133;-73
2021/11/05 03:07:07;;;;;;;7.60;1.97;;;8.40;99.90;;;;;;5131100;27;39695;-72
2021/11/05 03:09:36;;;;;;;8.83;1.80;;;8.40;99.90;;;;;;5133823;27;40638;-71
2021/11/05 03:12:04;;;;;;;7.20;2.07;;;8.30;99.90;;;;;;5133849;27;38560;-72
2021/11/05 03:14:30;;;;;;;8.03;2.13;;;8.30;99.90;;;;;;5134350;27;39418;-71
2021/11/05 03:16:57;;;;;;;5.13;1.73;;;8.20;99.90;;;;;;5129940;27;38249;-71
2021/11/05 03:19:24;;;;;;;6.33;1.43;;;8.20;99.90;;;;;;5148961;27;34476;-73
2021/11/05 03:21:51;;;;;;;4.00;2.13;;;8.20;99.90;;;;;;5153188;27;39445;-73
2021/11/05 03:24:17;;;;;;;7.33;2.37;;;8.00;99.90;;;;;;5132076;27;38693;-72
2021/11/05 03:26:43;;;;;;;7.00;2.20;;;8.00;99.90;;;;;;5145307;27;37982;-72
2021/11/05 03:29:09;;;;;;;5.20;1.90;;;7.90;99.90;;;;;;5138347;27;38635;-73
2021/11/05 03:31:35;;;;;;;6.17;1.70;;;7.90;99.90;;;;;;5132620;27;39376;-74
2021/11/05 03:34:02;;;;;;;5.47;2.10;;;7.80;99.90;;;;;;5131757;27;38882;-74
2021/11/05 03:36:28;;;;;;;11.73;3.60;;;7.70;99.90;;;;;;5125869;27;38519;-73
2021/11/05 03:38:55;;;;;;;4.83;2.80;;;7.70;99.90;;;;;;5147536;27;37191;-74
2021/11/05 03:41:21;;;;;;;7.27;2.73;;;7.70;99.90;;;;;;5154062;27;38663;-73
2021/11/05 03:43:49;;;;;;;6.30;2.70;;;7.60;99.90;;;;;;5157582;27;39150;-73
2021/11/05 03:46:15;;;;;;;4.33;2.40;;;7.60;99.90;;;;;;5144899;27;38983;-73
2021/11/05 03:48:41;;;;;;;6.77;2.67;;;7.60;99.90;;;;;;5152575;27;35976;-73
2021/11/05 03:51:09;;;;;;;10.27;3.63;;;7.70;99.90;;;;;;5135019;27;38540;-73
2021/11/05 03:53:36;;;;;;;6.30;2.90;;;7.70;99.90;;;;;;5157000;27;40467;-73
2021/11/05 03:56:04;;;;;;;8.00;3.50;;;7.60;99.90;;;;;;5132644;27;39464;-73
2021/11/05 03:58:30;;;;;;;7.43;3.10;;;7.60;99.90;;;;;;5131404;27;37448;-73
2021/11/05 04:00:56;;;;;;;3.90;2.13;;;7.50;99.90;;;;;;5129453;27;38555;-73
2021/11/05 04:03:23;;;;;;;4.20;2.40;;;7.50;99.90;;;;;;5132729;27;38355;-73
2021/11/05 04:05:49;;;;;;;6.80;2.90;;;7.40;99.90;;;;;;5129112;27;37899;-73
2021/11/05 04:08:15;;;;;;;4.27;2.33;;;7.40;99.90;;;;;;5128842;27;39125;-73
2021/11/05 04:10:41;;;;;;;8.00;3.20;;;7.40;99.90;;;;;;5131270;27;38813;-73
2021/11/05 04:13:08;;;;;;;4.77;3.53;;;7.40;99.90;;;;;;5129060;27;38280;-73
2021/11/05 04:15:34;;;;;;;8.20;3.83;;;7.40;99.90;;;;;;5137747;27;37907;-73
2021/11/05 04:18:00;;;;;;;5.47;2.67;;;7.40;99.90;;;;;;5117020;27;36088;-73
2021/11/05 04:20:26;;;;;;;8.67;4.33;;;7.40;99.90;;;;;;5135609;27;40056;-73
2021/11/05 04:22:52;;;;;;;7.47;4.20;;;7.40;99.90;;;;;;5135553;27;38271;-73
2021/11/05 04:25:18;;;;;;;8.43;3.03;;;7.40;99.90;;;;;;5132901;27;36992;-73
2021/11/05 04:27:45;;;;;;;4.93;3.17;;;7.40;99.90;;;;;;5131954;27;38173;-73
2021/11/05 04:30:13;;;;;;;6.47;3.80;;;7.30;99.90;;;;;;5109117;27;39407;-73
2021/11/05 04:32:40;;;;;;;4.93;2.40;;;7.20;99.90;;;;;;5129304;27;38171;-73
2021/11/05 04:35:07;;;;;;;8.83;3.27;;;7.20;99.90;;;;;;5128105;27;37723;-73
2021/11/05 04:37:33;;;;;;;6.30;3.50;;;7.20;99.90;;;;;;5112589;27;36315;-73
2021/11/05 04:39:59;;;;;;;6.67;2.60;;;7.20;99.90;;;;;;5129535;27;39155;-73
2021/11/05 04:42:25;;;;;;;5.53;2.90;;;7.20;99.90;;;;;;5116100;27;39281;-73
2021/11/05 04:44:51;;;;;;;8.17;2.80;;;7.20;99.90;;;;;;5147200;27;37934;-73
2021/11/05 04:47:17;;;;;;;5.00;3.30;;;7.20;99.90;;;;;;5127029;27;38205;-73
2021/11/05 04:49:43;;;;;;;7.70;2.80;;;7.10;99.90;;;;;;5131296;27;39871;-73
2021/11/05 04:52:09;;;;;;;5.30;2.60;;;7.10;99.90;;;;;;5126640;27;39226;-73
2021/11/05 04:54:35;;;;;;;6.87;2.43;;;7.10;99.90;;;;;;5131163;27;38359;-73
2021/11/05 04:57:02;;;;;;;9.80;3.70;;;7.00;99.90;;;;;;5150472;27;37584;-73
2021/11/05 04:59:28;;;;;;;8.23;3.47;;;7.00;99.90;;;;;;5155619;27;38618;-73
2021/11/05 05:01:54;;;;;;;11.43;4.37;;;7.10;99.90;;;;;;5155839;27;39433;-72
2021/11/05 05:04:20;;;;;;;8.30;3.77;;;7.00;99.90;;;;;;5141708;27;39191;-72
2021/11/05 05:06:46;;;;;;;5.40;3.20;;;7.10;99.90;;;;;;5136176;27;36744;-73
2021/11/05 05:09:12;;;;;;;6.83;3.47;;;7.00;99.90;;;;;;5130448;27;37612;-73
2021/11/05 05:11:41;;;;;;;6.53;3.20;;;7.00;99.90;;;;;;5156677;27;36090;-73
2021/11/05 05:14:07;;;;;;;7.00;3.30;;;7.00;99.90;;;;;;5161870;27;37658;-73
2021/11/05 05:16:33;;;;;;;9.03;2.97;;;7.00;99.90;;;;;;5151199;27;37055;-72
2021/11/05 05:18:59;;;;;;;7.93;3.50;;;7.00;99.90;;;;;;5158365;27;38665;-73
2021/11/05 05:21:26;;;;;;;4.73;2.17;;;7.10;99.90;;;;;;5128187;27;37383;-72
2021/11/05 05:23:52;;;;;;;10.47;3.40;;;7.10;99.90;;;;;;5124254;27;38347;-73
2021/11/05 05:26:19;;;;;;;10.33;3.50;;;7.00;99.90;;;;;;5127154;27;36056;-72
2021/11/05 05:28:45;;;;;;;6.87;2.73;;;7.00;99.90;;;;;;5138678;27;39116;-71
2021/11/05 05:31:11;;;;;;;5.43;2.53;;;6.90;99.90;;;;;;5155926;27;38462;-72
2021/11/05 05:33:39;;;;;;;4.10;2.90;;;6.90;99.90;;;;;;5135759;27;37452;-72
2021/11/05 05:36:06;;;;;;;6.73;3.47;;;6.90;99.90;;;;;;5157895;27;37177;-72
2021/11/05 05:38:32;;;;;;;5.47;3.90;;;6.90;99.90;;;;;;5159514;27;38710;-72
2021/11/05 05:40:59;;;;;;;12.20;5.40;;;6.90;99.90;;;;;;5152837;27;39959;-72
2021/11/05 05:43:25;;;;;;;7.90;4.77;;;7.00;99.90;;;;;;5152712;27;37795;-72
2021/11/05 05:45:51;;;;;;;11.10;6.47;;;7.10;99.90;;;;;;5145630;27;36964;-72
2021/11/05 05:48:18;;;;;;;11.00;5.77;;;7.00;99.90;;;;;;5157020;27;39389;-72
2021/11/05 05:50:44;;;;;;;10.93;6.50;;;7.10;99.90;;;;;;5119832;27;37826;-72
2021/11/05 05:53:10;;;;;;;9.70;5.70;;;7.20;99.90;;;;;;5127590;27;37801;-72
2021/11/05 05:55:38;;;;;;;21.93;9.60;;;7.20;99.90;;;;;;5124960;27;38026;-73
2021/11/05 05:58:05;;;;;;;10.33;7.07;;;7.10;99.90;;;;;;5122622;27;38043;-72
2021/11/05 06:00:34;;;;;;;11.67;7.70;;;7.20;99.90;;;;;;5122570;27;39455;-72
2021/11/05 06:03:00;;;;;;;10.33;6.00;;;7.30;99.90;;;;;;5128811;27;38204;-73
2021/11/05 06:05:27;;;;;;;8.87;5.53;;;7.20;99.90;;;;;;5125097;27;36998;-73
2021/11/05 06:07:53;;;;;;;12.00;6.83;;;7.20;99.90;;;;;;5124705;27;38665;-73
2021/11/05 06:10:19;;;;;;;5.50;4.47;;;7.10;99.90;;;;;;5116599;27;40151;-72
2021/11/05 06:12:46;;;;;;;8.47;5.23;;;7.10;99.90;;;;;;5132347;27;39887;-72
2021/11/05 06:15:12;;;;;;;9.03;5.33;;;7.10;99.90;;;;;;5130551;27;37931;-72
2021/11/05 06:17:38;;;;;;;12.20;5.83;;;7.00;99.90;;;;;;5132710;27;40234;-72
2021/11/05 06:20:06;;;;;;;11.03;5.57;;;7.00;99.90;;;;;;5131684;27;40862;-73
2021/11/05 06:22:32;;;;;;;6.57;4.87;;;7.00;99.90;;;;;;5127843;27;38619;-73
2021/11/05 06:24:59;;;;;;;11.10;5.20;;;7.00;99.90;;;;;;5143081;27;37854;-73
2021/11/05 06:27:29;;;;;;;11.47;6.40;;;7.00;99.90;;;;;;5119946;27;40261;-72
2021/11/05 06:29:56;;;;;;;14.50;7.10;;;7.00;99.90;;;;;;5124402;27;39192;-72
2021/11/05 06:32:22;;;;;;;6.00;4.40;;;7.00;99.90;;;;;;5134975;27;38075;-73
2021/11/05 06:34:49;;;;;;;7.97;4.43;;;7.10;99.90;;;;;;5139123;27;37096;-72
2021/11/05 06:37:16;;;;;;;9.47;3.83;;;7.10;99.90;;;;;;5118032;27;39402;-72
2021/11/05 06:39:43;;;;;;;11.70;4.90;;;7.20;99.90;;;;;;5134918;27;39985;-72
2021/11/05 06:42:10;;;;;;;10.33;4.87;;;7.10;99.90;;;;;;5132710;27;38289;-73
2021/11/05 06:44:36;;;;;;;8.70;4.23;;;7.30;99.90;;;;;;5134170;27;37274;-72
2021/11/05 06:47:02;;;;;;;7.10;3.57;;;7.30;99.90;;;;;;5120601;27;38493;-73
2021/11/05 06:49:28;;;;;;;11.50;5.60;;;7.30;99.90;;;;;;5134004;27;38307;-72
2021/11/05 06:51:55;;;;;;;6.67;3.33;;;7.40;99.90;;;;;;5121018;27;38388;-72
2021/11/05 06:54:22;;;;;;;10.17;4.97;;;7.50;99.90;;;;;;5113555;27;38623;-72
2021/11/05 06:56:49;;;;;;;12.50;6.83;;;7.50;99.90;;;;;;5134627;27;39601;-73
2021/11/05 06:59:16;;;;;;;10.90;5.50;;;7.70;99.90;;;;;;5134291;27;39035;-72
2021/11/05 07:01:42;;;;;;;9.30;5.27;;;7.80;99.90;;;;;;5122594;27;39742;-73
2021/11/05 07:04:08;;;;;;;4.40;2.60;;;8.00;99.90;;;;;;5133884;27;37778;-71
2021/11/05 07:06:35;;;;;;;14.87;5.93;;;8.20;99.90;;;;;;5135498;27;38991;-71
2021/11/05 07:09:01;;;;;;;9.30;4.60;;;8.30;99.90;;;;;;5138129;27;39270;-73
2021/11/05 07:11:27;;;;;;;8.67;4.20;;;8.40;99.90;;;;;;5133942;27;49811;-71
2021/11/05 07:13:53;;;;;;;9.73;4.03;;;8.50;99.90;;;;;;5137629;27;37610;-71
2021/11/05 07:16:21;;;;;;;10.60;5.47;;;8.50;99.90;;;;;;5140367;27;38688;-71
2021/11/05 07:18:49;;;;;;;11.80;5.43;;;8.40;99.90;;;;;;5132772;27;38854;-72
2021/11/05 07:21:15;;;;;;;11.33;4.80;;;8.30;99.90;;;;;;5139825;27;39316;-72
2021/11/05 07:23:41;;;;;;;15.93;6.43;;;8.30;99.90;;;;;;5132623;27;35923;-72
2021/11/05 07:26:11;;;;;;;10.30;3.33;;;8.30;99.90;;;;;;5137543;27;39507;-72
2021/11/05 07:28:37;;;;;;;11.03;5.00;;;8.30;99.90;;;;;;5145078;27;38310;-72
2021/11/05 07:31:03;;;;;;;14.10;3.83;;;8.30;99.90;;;;;;5130802;27;37852;-72
2021/11/05 07:33:29;;;;;;;7.87;3.23;;;8.40;99.90;;;;;;5139185;27;35916;-72
2021/11/05 07:35:56;;;;;;;7.93;3.77;;;8.60;99.90;;;;;;5148769;27;38456;-72
2021/11/05 07:38:22;;;;;;;6.83;3.60;;;8.60;99.90;;;;;;5140212;27;39351;-71
2021/11/05 07:40:48;;;;;;;8.90;4.10;;;8.70;99.90;;;;;;5131186;27;39499;-71
2021/11/05 07:43:14;;;;;;;8.17;4.23;;;8.80;99.90;;;;;;5125037;27;37518;-71
2021/11/05 07:45:40;;;;;;;13.80;5.37;;;8.80;99.90;;;;;;5135367;27;38670;-71
2021/11/05 07:48:06;;;;;;;10.33;5.20;;;8.90;99.90;;;;;;5129988;27;38416;-72
2021/11/05 07:50:35;;;;;;;13.63;7.33;;;9.00;99.90;;;;;;5139769;27;37791;-71
2021/11/05 07:53:02;;;;;;;12.03;4.60;;;9.10;99.90;;;;;;5124417;27;37578;-72
2021/11/05 07:55:29;;;;;;;13.93;5.80;;;9.20;99.90;;;;;;5143298;27;48732;-71
2021/11/05 07:57:56;;;;;;;19.43;7.43;;;9.30;99.90;;;;;;5130456;27;39503;-71
2021/11/05 08:00:23;;;;;;;11.27;4.93;;;9.40;99.90;;;;;;5139935;27;38844;-72
2021/11/05 08:02:49;;;;;;;24.20;5.20;;;9.70;99.90;;;;;;5141534;27;37034;-71
2021/11/05 08:05:15;;;;;;;14.13;3.80;;;10.10;99.90;;;;;;5158299;27;40621;-71
2021/11/05 08:07:42;;;;;;;7.73;2.40;;;10.80;99.90;;;;;;5125900;27;40223;-71
2021/11/05 08:10:08;;;;;;;10.60;2.10;;;11.30;99.90;;;;;;5155582;27;38148;-70
2021/11/05 08:12:35;;;;;;;11.43;2.47;;;11.60;99.90;;;;;;5128278;27;37333;-71
2021/11/05 08:15:01;;;;;;;11.63;1.87;;;11.70;99.90;;;;;;5137587;27;37555;-71
2021/11/05 08:17:27;;;;;;;14.63;2.90;;;11.80;99.90;;;;;;5146435;27;38215;-71
2021/11/05 08:19:54;;;;;;;8.23;2.10;;;11.90;99.90;;;;;;5144639;27;37529;-71
2021/11/05 08:22:20;;;;;;;10.13;2.87;;;12.00;99.90;;;;;;5135002;27;37402;-72
2021/11/05 08:24:47;;;;;;;15.30;3.07;;;12.00;99.90;;;;;;5127945;27;38118;-73
2021/11/05 08:27:14;;;;;;;14.60;2.80;;;12.10;99.90;;;;;;5143118;27;38455;-72
2021/11/05 08:29:40;;;;;;;9.20;2.33;;;12.20;99.90;;;;;;5123004;27;37596;-72
2021/11/05 08:32:06;;;;;;;11.93;2.43;;;12.10;99.90;;;;;;5134829;27;37846;-73
2021/11/05 08:34:32;;;;;;;15.23;2.53;;;12.20;99.90;;;;;;5138681;27;39004;-73
2021/11/05 08:36:58;;;;;;;6.47;2.20;;;12.10;99.90;;;;;;5133291;27;37226;-73
2021/11/05 08:39:25;;;;;;;9.63;2.30;;;12.20;99.90;;;;;;5140117;27;36928;-73
2021/11/05 08:41:51;;;;;;;6.53;1.20;;;12.30;99.90;;;;;;5140038;27;37365;-73
2021/11/05 08:44:17;;;;;;;10.53;1.23;;;12.30;99.90;;;;;;5137222;27;38714;-73
2021/11/05 08:46:44;;;;;;;7.27;1.20;;;12.20;99.90;;;;;;5139895;27;39166;-73
2021/11/05 08:49:12;;;;;;;5.27;1.00;;;12.10;99.90;;;;;;5141062;27;38174;-73
2021/11/05 08:51:44;;;;;;;8.33;1.20;;;12.00;99.90;;;;;;5141472;27;35995;-73
2021/11/05 08:54:11;;;;;;;10.88;1.30;;;12.00;99.90;;;;;;5124438;27;39459;-73
2021/11/05 08:56:38;;;;;;;8.70;1.07;;;11.80;99.90;;;;;;5138826;27;39739;-72
2021/11/05 08:59:05;;;;;;;7.57;1.10;;;11.70;99.90;;;;;;5142328;27;37878;-73
2021/11/05 09:01:31;;;;;;;5.53;1.07;;;11.70;99.90;;;;;;5130666;27;37091;-72
2021/11/05 09:03:58;;;;;;;9.60;1.13;;;11.70;99.90;;;;;;5140314;27;38810;-72
2021/11/05 09:06:26;;;;;;;6.10;1.67;;;11.70;99.90;;;;;;5138811;27;20526;-72
2021/11/05 09:08:56;;;;;;;8.70;1.63;;;11.70;99.90;;;;;;5146600;27;38087;-72
2021/11/05 09:11:23;;;;;;;5.70;1.50;;;11.90;99.90;;;;;;5132834;27;37544;-72
2021/11/05 09:13:50;;;;;;;12.47;1.63;;;12.10;99.90;;;;;;5145728;27;38995;-73
2021/11/05 09:16:16;;;;;;;10.60;1.30;;;12.20;99.90;;;;;;5144547;27;38561;-72
2021/11/05 09:18:43;;;;;;;7.10;1.33;;;12.30;99.90;;;;;;5141742;27;37526;-72
2021/11/05 09:21:09;;;;;;;7.33;1.13;;;12.40;99.90;;;;;;5136390;27;36302;-73
2021/11/05 09:23:35;;;;;;;9.07;1.13;;;12.50;99.90;;;;;;5129418;27;39567;-72
2021/11/05 09:26:01;;;;;;;4.43;0.67;;;12.50;99.90;;;;;;5149828;27;38541;-72
2021/11/05 09:28:28;;;;;;;8.90;1.07;;;12.50;99.90;;;;;;5156042;27;38014;-71
2021/11/05 09:30:54;;;;;;;9.17;0.70;;;12.50;99.90;;;;;;5121934;27;37299;-71
2021/11/05 09:33:20;;;;;;;8.83;1.10;;;12.60;99.90;;;;;;5140980;27;40135;-71
2021/11/05 09:35:47;;;;;;;4.73;0.93;;;12.70;99.90;;;;;;5111193;27;38866;-71
2021/11/05 09:38:14;;;;;;;4.70;0.80;;;12.90;99.90;;;;;;5122108;27;36842;-72
2021/11/05 09:40:41;;;;;;;5.20;0.67;;;13.10;99.90;;;;;;5139656;27;37962;-71
2021/11/05 09:43:07;;;;;;;8.43;0.63;;;13.30;99.90;;;;;;5139825;27;39179;-71
2021/11/05 09:45:33;;;;;;;5.20;0.70;;;13.50;99.90;;;;;;5137649;27;38471;-71
2021/11/05 09:48:01;;;;;;;6.95;0.93;;;13.60;99.90;;;;;;5132469;27;37431;-73
2021/11/05 09:50:29;;;;;;;8.27;0.73;;;13.60;99.90;;;;;;5125476;27;49111;-73
2021/11/05 09:52:55;;;;;;;4.03;0.52;;;13.70;99.90;;;;;;5142871;27;40885;-73
2021/11/05 09:55:21;;;;;;;9.55;0.80;;;13.80;99.90;;;;;;5113713;27;38721;-73
2021/11/05 09:57:48;;;;;;;1.13;0.70;;;13.80;99.90;;;;;;5128163;27;38206;-71
2021/11/05 10:00:19;;;;;;;4.60;0.50;;;13.70;99.90;;;;;;5129180;27;37845;-71
2021/11/05 10:02:46;;;;;;;2.45;0.40;;;13.60;99.90;;;;;;5138510;27;39491;-72
2021/11/05 10:05:13;;;;;;;7.75;1.40;;;13.60;99.90;;;;;;5139637;27;38395;-73
2021/11/05 10:07:59;;;;;;;15.45;1.33;;;13.60;99.90;;;;;;5142135;27;38827;-73
2021/11/05 10:10:29;;;;;;;5.35;0.60;;;13.40;99.90;;;;;;5130617;27;35942;-73
2021/11/05 10:13:08;;;;;;;4.32;0.65;;;13.40;99.90;;;;;;5143506;27;38801;-73
2021/11/05 10:15:46;;;;;;;6.70;1.42;;;13.40;99.90;;;;;;5132016;27;46865;-73
2021/11/05 10:18:17;;;;;;;8.43;0.98;;;13.40;99.90;;;;;;5147077;27;40135;-73
2021/11/05 10:20:46;;;;;;;7.10;0.85;;;13.50;99.90;;;;;;5156999;27;37150;-74
2021/11/05 10:23:14;;;;;;;7.35;1.23;;;13.60;99.90;;;;;;5154794;27;38840;-74
2021/11/05 10:25:47;;;;;;;7.82;0.88;;;13.60;99.90;;;;;;5166619;27;40194;-74
2021/11/05 10:28:14;;;;;;;2.97;0.80;;;13.60;99.90;;;;;;5137925;27;38702;-71
2021/11/05 10:30:44;;;;;;;4.80;0.82;;;13.60;99.90;;;;;;5166191;27;37877;-72
2021/11/05 10:33:15;;;;;;;4.57;1.35;;;13.60;99.90;;;;;;5158567;27;40304;-72
2021/11/05 10:35:44;;;;;;;2.58;0.70;;;13.50;99.90;;;;;;5130453;27;39225;-73
2021/11/05 10:38:12;;;;;;;5.30;0.70;;;13.50;99.90;;;;;;5140099;27;39684;-71
2021/11/05 10:40:48;;;;;;;3.17;0.70;;;13.50;99.90;;;;;;5142910;27;37158;-72
2021/11/05 10:43:36;;;;;;;7.20;0.60;;;13.70;99.90;;;;;;5159879;27;38322;-73
2021/11/05 10:46:04;;;;;;;4.03;0.70;;;13.80;99.90;;;;;;5124933;27;38914;-74
2021/11/05 10:48:36;;;;;;;6.70;0.90;;;13.80;99.90;;;;;;5136282;27;38436;-73
2021/11/05 10:51:04;;;;;;;5.40;0.65;;;13.80;99.90;;;;;;5156210;27;37085;-74
2021/11/05 10:53:35;;;;;;;5.53;1.20;;;13.70;99.90;;;;;;5167146;27;38717;-73
2021/11/05 10:56:09;;;;;;;9.07;0.93;;;13.70;99.90;;;;;;5163625;27;37845;-74
2021/11/05 10:58:40;;;;;;;8.80;1.25;;;13.70;99.90;;;;;;5167344;27;38709;-72
2021/11/05 11:01:15;;;;;;;7.82;1.17;;;13.60;99.90;;;;;;5152135;27;37411;-73
2021/11/05 11:03:56;;;;;;;11.90;1.88;;;13.50;99.90;;;;;;5132429;27;37973;-73
2021/11/05 11:06:34;;;;;;;8.27;1.55;;;13.30;99.90;;;;;;5147789;27;38020;-73
2021/11/05 11:09:04;;;;;;;10.82;1.40;;;13.20;99.90;;;;;;5147123;27;36948;-73
2021/11/05 11:11:35;;;;;;;5.53;1.17;;;13.20;99.90;;;;;;5160382;27;48290;-73
2021/11/05 11:14:07;;;;;;;8.07;1.20;;;13.30;99.90;;;;;;5132241;27;38888;-73
2021/11/05 11:16:40;;;;;;;9.45;2.17;;;13.40;99.90;;;;;;5163786;27;49634;-73
2021/11/05 11:19:09;;;;;;;11.63;1.33;;;13.50;99.90;;;;;;5141340;27;38614;-73
2021/11/05 11:21:39;;;;;;;8.48;1.20;;;13.80;99.90;;;;;;5136073;27;36148;-73
2021/11/05 11:24:08;;;;;;;6.38;0.90;;;14.00;99.90;;;;;;5148670;27;38724;-74
2021/11/05 11:26:36;;;;;;;10.05;0.90;;;14.30;99.90;;;;;;5159241;27;38487;-73
2021/11/05 11:29:04;;;;;;;6.13;0.90;;;14.50;99.90;;;;;;5165170;27;38842;-73
2021/11/05 11:31:31;;;;;;;7.05;0.60;;;14.60;99.90;;;;;;5131592;27;47144;-73
2021/11/05 11:34:04;;;;;;;8.18;0.50;;;14.70;99.90;;;;;;5164812;27;39181;-73
2021/11/05 11:36:33;;;;;;;5.20;0.80;;;14.70;99.90;;;;;;5121332;27;47407;-72
2021/11/05 11:39:00;;;;;;;6.25;0.90;;;14.60;99.90;;;;;;5163927;27;38199;-73
2021/11/05 11:41:27;;;;;;;4.70;0.82;;;14.20;99.90;;;;;;5129676;27;40693;-73
2021/11/05 11:43:54;;;;;;;4.35;0.80;;;13.90;99.90;;;;;;5110819;27;39491;-73
2021/11/05 11:46:21;;;;;;;5.97;0.93;;;13.70;99.90;;;;;;5118973;27;40068;-74
2021/11/05 11:48:53;;;;;;;5.47;0.85;;;13.70;99.90;;;;;;5143929;27;36126;-74
2021/11/05 11:51:29;;;;;;;4.70;0.60;;;13.60;99.90;;;;;;5140170;27;37389;-73
2021/11/05 11:54:18;;;;;;;8.77;1.73;;;13.60;99.90;;;;;;5139594;27;39953;-74
2021/11/05 11:56:44;;;;;;;5.28;0.70;;;13.60;99.90;;;;;;5138724;27;47359;-73
2021/11/05 11:59:13;;;;;;;3.00;0.80;;;13.70;99.90;;;;;;5139789;27;38429;-73
2021/11/05 12:01:41;;;;;;;9.00;0.75;;;13.70;99.90;;;;;;5136004;27;38425;-74
2021/11/05 12:04:12;;;;;;;3.65;0.70;;;13.80;99.90;;;;;;5142273;27;39091;-73
2021/11/05 12:06:51;;;;;;;4.30;0.70;;;13.80;99.90;;;;;;5127486;27;38537;-73
2021/11/05 12:09:25;;;;;;;5.70;0.75;;;13.80;99.90;;;;;;5143720;27;39131;-73
2021/11/05 12:12:11;;;;;;;5.10;0.82;;;13.90;99.90;;;;;;5140463;27;38148;-73
2021/11/05 12:15:01;;;;;;;4.15;0.95;;;14.10;99.90;;;;;;5141314;27;46838;-72
2021/11/05 12:17:29;;;;;;;7.90;1.70;;;14.10;99.90;;;;;;5129246;27;47298;-73
2021/11/05 12:20:00;;;;;;;6.65;0.73;;;14.10;99.90;;;;;;5138249;27;37785;-72
2021/11/05 12:22:28;;;;;;;9.88;0.90;;;13.90;99.90;;;;;;5136537;27;47687;-73
2021/11/05 12:25:17;;;;;;;9.48;1.00;;;13.80;99.90;;;;;;5141600;27;39232;-73
2021/11/05 12:28:14;;;;;;;6.55;1.45;;;13.70;99.90;;;;;;5124757;27;47060;-72
2021/11/05 12:30:40;;;;;;;8.20;1.40;;;13.80;99.90;;;;;;5111350;27;47644;-73
2021/11/05 12:33:26;;;;;;;8.82;0.88;;;14.20;99.90;;;;;;5144655;27;36426;-73
2021/11/05 12:35:53;;;;;;;7.57;0.85;;;14.50;99.90;;;;;;5139870;27;40666;-73
2021/11/05 12:38:19;;;;;;;5.30;0.70;;;14.60;99.90;;;;;;5165451;27;38610;-74
2021/11/05 12:41:04;;;;;;;9.98;1.45;;;14.70;99.90;;;;;;5130175;27;38160;-73
2021/11/05 12:43:33;;;;;;;4.47;0.90;;;14.90;99.90;;;;;;5153910;27;47147;-72
2021/11/05 12:46:29;;;;;;;5.97;0.65;;;15.20;99.90;;;;;;5141374;27;37787;-72
2021/11/05 12:48:57;;;;;;;9.38;1.67;;;15.00;99.90;;;;;;5132811;27;49264;-73
2021/11/05 12:51:40;;;;;;;7.40;1.00;;;15.00;99.90;;;;;;5137525;27;38043;-74
2021/11/05 12:54:18;;;;;;;3.90;0.80;;;14.90;99.90;;;;;;5132473;27;37320;-73